CheckWX is a tool to help pilots better visualize weather data.  It is not intended as a substitute for an official pre-flight weather briefing.

21:03:23 UTC

KGOP METAR
Gatesville Municipal Airport
Gatesville, Texas, USA
Current

8 mins ago

KGOP 232055Z AUTO 25019G25KT 10SM CLR 20/M08 A2991 RMK AO2
Observed
Feb-23 @ 20:55 UTC
Wind
  • 250° at 19 KTS
  • Gusting to 25 KTS
Visibility
10 SM
Flight Rules
VFR
Cloud Levels
  • Clear skies
Temperature
20°C / 68°F
Dewpoint
-8°C / 18°F
Humidity
14%
Altimeter
29.91" Hg
Pressure
1012.92 hPa
Previous

28 mins ago

KGOP 232035Z AUTO 24020KT 10SM CLR 20/M08 A2990 RMK AO2
Observed
Feb-23 @ 20:35 UTC
Wind
  • 240° at 20 KTS
Visibility
10 SM
Flight Rules
VFR
Cloud Levels
  • Clear skies
Temperature
20°C / 68°F
Dewpoint
-8°C / 18°F
Humidity
14%
Altimeter
29.9" Hg
Pressure
1012.52 hPa
Previous

48 mins ago

KGOP 232015Z AUTO 26017G30KT 10SM CLR 20/M08 A2991 RMK AO2
Observed
Feb-23 @ 20:15 UTC
Wind
  • 260° at 17 KTS
  • Gusting to 30 KTS
Visibility
10 SM
Flight Rules
VFR
Cloud Levels
  • Clear skies
Temperature
20°C / 68°F
Dewpoint
-8°C / 18°F
Humidity
14%
Altimeter
29.91" Hg
Pressure
1012.92 hPa